Time;durP1;ratioP1;P1;durP2;ratioP2;P2;SDS_P1;SDS_P2;PMS_P1;PMS_P2;Temp;Humidity;BMP_temperature;BMP_pressure;BME280_temperature;BME280_humidity;BME280_pressure;Samples;Min_cycle;Max_cycle;Signal;HPM_P1;HPM_P2
2023/05/11 00:01:43;;;;;;;10.57;9.48;;;;;;;12.00;100.00;101285.31;4943763;29;20206;-46
2023/05/11 00:04:08;;;;;;;10.38;9.27;;;;;;;12.04;100.00;101286.09;4935062;29;20195;-49
2023/05/11 00:06:34;;;;;;;11.40;9.73;;;;;;;12.05;100.00;101287.88;4926503;29;20233;-51
2023/05/11 00:08:59;;;;;;;9.82;8.82;;;;;;;12.18;100.00;101288.25;4935529;29;20673;-45
2023/05/11 00:11:25;;;;;;;11.05;9.90;;;;;;;12.11;100.00;101285.84;4938646;29;20269;-49
2023/05/11 00:13:50;;;;;;;10.45;9.40;;;;;;;12.16;100.00;101288.34;4945437;29;20604;-49
2023/05/11 00:16:16;;;;;;;9.98;8.98;;;;;;;12.14;100.00;101290.22;4938950;29;20175;-46
2023/05/11 00:18:41;;;;;;;9.80;8.77;;;;;;;12.18;100.00;101296.31;4943331;29;20315;-48
2023/05/11 00:21:07;;;;;;;10.68;9.60;;;;;;;12.14;100.00;101291.06;4934371;29;20278;-48
2023/05/11 00:23:32;;;;;;;10.70;9.60;;;;;;;12.17;100.00;101306.19;4942801;29;20600;-54
2023/05/11 00:25:58;;;;;;;10.52;9.43;;;;;;;12.10;100.00;101296.63;4936406;29;20187;-49
2023/05/11 00:28:23;;;;;;;11.50;10.30;;;;;;;12.08;100.00;101296.66;4940541;29;20267;-48
2023/05/11 00:30:49;;;;;;;10.80;9.40;;;;;;;12.19;100.00;101301.66;4936789;29;20187;-50
2023/05/11 00:33:15;;;;;;;10.27;9.27;;;;;;;12.19;100.00;101298.09;4951571;23;20254;-47
2023/05/11 00:35:41;;;;;;;10.30;9.32;;;;;;;12.18;100.00;101301.69;4914320;29;20674;-49
2023/05/11 00:38:07;;;;;;;10.57;9.48;;;;;;;12.14;100.00;101304.50;4913648;29;20289;-48
2023/05/11 00:40:32;;;;;;;10.73;9.63;;;;;;;12.17;100.00;101308.88;4910555;29;20226;-47
2023/05/11 00:42:58;;;;;;;10.98;9.88;;;;;;;12.02;100.00;101307.63;4910415;29;20219;-49
2023/05/11 00:45:24;;;;;;;11.13;10.02;;;;;;;12.04;100.00;101299.53;4901804;29;20212;-48
2023/05/11 00:47:50;;;;;;;9.85;8.85;;;;;;;12.13;100.00;101302.78;4900922;29;20266;-48
2023/05/11 00:50:17;;;;;;;11.85;10.50;;;;;;;12.11;100.00;101306.41;4923833;29;20553;-48
2023/05/11 00:52:44;;;;;;;10.82;9.82;;;;;;;12.12;100.00;101298.31;4916976;29;20306;-48
2023/05/11 00:55:12;;;;;;;11.90;10.70;;;;;;;12.06;100.00;101297.66;4926898;29;20202;-48
2023/05/11 00:57:38;;;;;;;10.23;9.23;;;;;;;12.14;100.00;101306.31;4908279;29;20190;-48
2023/05/11 01:00:05;;;;;;;11.20;10.07;;;;;;;12.12;100.00;101302.81;4922880;29;20733;-47
2023/05/11 01:02:32;;;;;;;11.57;9.98;;;;;;;12.00;100.00;101304.13;4922543;29;20566;-49
2023/05/11 01:04:59;;;;;;;10.95;9.82;;;;;;;12.11;100.00;101312.69;4927972;29;20187;-47
2023/05/11 01:07:34;;;;;;;9.80;8.77;;;;;;;12.19;100.00;101300.78;4926522;29;20194;-47
2023/05/11 01:13:38;;;;;;;10.00;9.00;;;;;;;12.17;100.00;101311.56;4906774;29;20724;-47
2023/05/11 01:16:13;;;;;;;11.68;10.38;;;;;;;12.05;100.00;101312.03;4923516;29;20193;-47
2023/05/11 01:18:47;;;;;;;12.00;10.52;;;;;;;12.10;100.00;101310.06;4904616;29;20207;-48
2023/05/11 01:21:16;;;;;;;11.45;10.30;;;;;;;12.08;100.00;101314.59;4904304;29;20215;-49
2023/05/11 01:24:23;;;;;;;11.13;10.07;;;;;;;11.93;100.00;101316.03;4906772;29;20212;-48
2023/05/11 01:26:57;;;;;;;12.60;11.07;;;;;;;11.93;100.00;101322.28;4909320;29;20187;-50
2023/05/11 01:29:41;;;;;;;12.38;11.07;;;;;;;11.94;100.00;101316.00;4917585;29;20625;-48
2023/05/11 01:32:21;;;;;;;15.20;12.57;;;;;;;11.87;100.00;101317.13;4899982;29;20706;-49
2023/05/11 01:34:59;;;;;;;14.88;12.13;;;;;;;11.82;100.00;101324.44;4903689;29;20713;-49
2023/05/11 01:37:26;;;;;;;13.07;11.68;;;;;;;11.99;100.00;101323.00;4904824;29;20176;-48
2023/05/11 01:39:55;;;;;;;14.73;11.88;;;;;;;11.94;100.00;101326.72;4927227;29;20195;-49
2023/05/11 01:42:29;;;;;;;12.30;10.98;;;;;;;12.04;100.00;101335.31;4893782;29;20215;-50
2023/05/11 01:44:56;;;;;;;14.05;12.45;;;;;;;12.06;100.00;101333.44;4923521;29;20275;-49
2023/05/11 01:47:22;;;;;;;15.65;13.95;;;;;;;11.91;100.00;101323.25;4904527;29;20184;-47
2023/05/11 01:49:50;;;;;;;16.98;13.02;;;;;;;11.83;100.00;101330.69;4921145;29;20180;-47
2023/05/11 01:52:19;;;;;;;13.63;12.23;;;;;;;11.98;100.00;101337.34;4924796;29;20282;-50
2023/05/11 01:54:47;;;;;;;14.57;12.40;;;;;;;11.92;100.00;101336.66;4924276;29;20254;-47
2023/05/11 01:57:16;;;;;;;15.23;12.48;;;;;;;11.79;100.00;101326.38;4928900;29;20183;-49
2023/05/11 01:59:43;;;;;;;14.27;12.77;;;;;;;11.84;100.00;101333.31;4901502;29;20310;-48
2023/05/11 02:02:11;;;;;;;14.55;12.88;;;;;;;11.81;100.00;101327.19;4921465;29;20208;-48
2023/05/11 02:04:39;;;;;;;16.20;13.50;;;;;;;11.92;100.00;101333.97;4917455;29;20187;-47
2023/05/11 02:07:07;;;;;;;13.60;11.70;;;;;;;11.93;100.00;101341.06;4931619;29;20251;-48
2023/05/11 02:09:35;;;;;;;14.55;13.02;;;;;;;11.94;100.00;101336.59;4914719;29;20632;-47
2023/05/11 02:12:03;;;;;;;15.02;13.35;;;;;;;11.94;100.00;101337.47;4914763;29;20196;-49
2023/05/11 02:14:33;;;;;;;15.48;12.88;;;;;;;12.02;100.00;101336.31;4898959;29;20180;-48
2023/05/11 02:17:01;;;;;;;17.02;13.85;;;;;;;11.92;100.00;101338.47;4914684;29;20811;-47
2023/05/11 02:19:28;;;;;;;14.18;12.45;;;;;;;11.87;100.00;101346.66;4910240;29;20286;-48
2023/05/11 02:21:55;;;;;;;13.35;11.95;;;;;;;11.97;100.00;101341.84;4915942;29;20180;-48
2023/05/11 02:24:23;;;;;;;14.13;12.63;;;;;;;11.99;100.00;101333.75;4933331;29;20183;-50
2023/05/11 02:26:49;;;;;;;17.25;13.82;;;;;;;11.97;100.00;101341.84;4917024;29;20192;-50
2023/05/11 02:29:15;;;;;;;15.95;13.32;;;;;;;11.98;100.00;101342.72;4916061;29;20190;-48
2023/05/11 02:31:45;;;;;;;15.10;13.15;;;;;;;11.87;100.00;101340.38;4917844;29;20239;-50
2023/05/11 02:34:37;;;;;;;17.67;14.38;;;;;;;11.75;100.00;101347.06;4917655;29;20183;-50
2023/05/11 02:37:08;;;;;;;20.27;15.35;;;;;;;11.68;100.00;101350.91;4917820;29;20171;-48
2023/05/11 02:39:35;;;;;;;17.67;13.40;;;;;;;11.74;100.00;101353.34;4917708;29;20199;-50
2023/05/11 02:42:11;;;;;;;17.70;15.70;;;;;;;11.59;100.00;101351.19;4914417;29;20218;-50
2023/05/11 02:44:38;;;;;;;17.15;14.88;;;;;;;11.77;100.00;101361.31;4898682;29;20184;-49
2023/05/11 02:47:07;;;;;;;15.52;13.35;;;;;;;11.76;100.00;101359.53;4898728;29;20169;-48
2023/05/11 02:49:36;;;;;;;15.30;12.57;;;;;;;11.89;100.00;101363.59;4905936;29;20188;-48
2023/05/11 02:52:05;;;;;;;20.33;14.65;;;;;;;11.83;100.00;101361.09;4914127;29;20196;-46
2023/05/11 02:54:36;;;;;;;19.80;14.32;;;;;;;11.76;100.00;101362.22;4913699;29;20246;-47
2023/05/11 02:57:02;;;;;;;19.70;14.10;;;;;;;11.83;100.00;101360.22;4920874;29;20635;-47
2023/05/11 02:59:29;;;;;;;16.25;14.02;;;;;;;11.74;100.00;101361.41;4913808;29;20211;-48
2023/05/11 03:01:55;;;;;;;19.20;15.85;;;;;;;11.72;100.00;101371.34;4933853;29;20184;-52
2023/05/11 03:04:21;;;;;;;17.27;13.68;;;;;;;11.86;100.00;101370.84;4920175;29;20179;-52
2023/05/11 03:06:47;;;;;;;17.60;14.43;;;;;;;11.82;100.00;101371.91;4916892;29;20203;-49
2023/05/11 03:09:12;;;;;;;19.27;15.38;;;;;;;11.78;100.00;101378.28;4921373;29;20175;-48
2023/05/11 03:11:44;;;;;;;16.08;13.00;;;;;;;11.85;100.00;101370.00;4920605;29;20278;-50
2023/05/11 03:14:10;;;;;;;18.05;14.20;;;;;;;11.89;100.00;101381.50;4899840;29;20743;-49
2023/05/11 03:16:38;;;;;;;16.40;13.52;;;;;;;11.86;100.00;101385.16;4925552;29;20192;-48
2023/05/11 03:19:07;;;;;;;16.67;13.93;;;;;;;11.86;100.00;101377.09;4914077;29;20245;-48
2023/05/11 03:21:35;;;;;;;17.75;14.38;;;;;;;11.85;100.00;101385.19;4901048;29;20647;-49
2023/05/11 03:24:05;;;;;;;18.40;14.68;;;;;;;11.85;100.00;101377.13;4915650;29;20183;-47
2023/05/11 03:26:32;;;;;;;19.10;14.32;;;;;;;11.82;100.00;101375.44;4896878;29;20194;-49
2023/05/11 03:28:59;;;;;;;15.50;13.23;;;;;;;11.84;100.00;101378.97;4913975;29;20243;-46
2023/05/11 03:31:25;;;;;;;23.05;16.15;;;;;;;11.76;100.00;101381.03;4907436;29;20188;-47
2023/05/11 03:33:51;;;;;;;22.60;15.57;;;;;;;11.73;100.00;101381.13;4914558;29;20246;-48
2023/05/11 03:36:17;;;;;;;26.20;16.95;;;;;;;11.72;100.00;101380.28;4921466;29;20275;-48
2023/05/11 03:38:46;;;;;;;22.23;16.00;;;;;;;11.67;100.00;101378.66;4913080;29;20271;-48
2023/05/11 03:41:16;;;;;;;20.58;14.65;;;;;;;11.68;100.00;101375.06;4920535;29;20191;-48
2023/05/11 03:43:46;;;;;;;20.63;14.43;;;;;;;11.77;100.00;101381.91;4895389;29;20204;-48
2023/05/11 03:46:13;;;;;;;23.15;16.38;;;;;;;11.76;100.00;101372.97;4919995;29;20195;-47
2023/05/11 03:48:40;;;;;;;23.75;17.40;;;;;;;11.67;100.00;101378.66;4912436;29;20180;-49
2023/05/11 03:51:08;;;;;;;22.88;16.50;;;;;;;11.59;100.00;101381.63;4900245;29;20191;-48
2023/05/11 03:53:34;;;;;;;21.73;15.48;;;;;;;11.65;100.00;101378.69;4901770;29;20227;-48
2023/05/11 03:56:00;;;;;;;23.13;16.20;;;;;;;11.63;100.00;101387.75;4920997;29;20659;-48
2023/05/11 03:58:26;;;;;;;24.40;16.80;;;;;;;11.67;100.00;101382.22;4913580;29;20187;-47
2023/05/11 04:00:51;;;;;;;24.30;16.27;;;;;;;11.62;100.00;101380.63;4923133;29;20275;-47
2023/05/11 04:03:17;;;;;;;26.70;17.52;;;;;;;11.66;100.00;101384.97;4922670;29;20223;-49
2023/05/11 04:05:43;;;;;;;25.42;17.45;;;;;;;11.61;100.00;101376.19;4912110;29;20187;-46
2023/05/11 04:08:11;;;;;;;29.08;17.38;;;;;;;11.53;100.00;101392.56;4904656;29;20681;-46
2023/05/11 04:10:37;;;;;;;28.42;18.25;;;;;;;11.52;100.00;101389.00;4924626;29;20657;-46
2023/05/11 04:13:03;;;;;;;26.23;17.33;;;;;;;11.55;100.00;101391.56;4908894;29;20199;-45
2023/05/11 04:15:29;;;;;;;29.02;18.98;;;;;;;11.58;100.00;101397.75;4921381;29;20199;-47
2023/05/11 04:17:54;;;;;;;24.95;17.52;;;;;;;11.70;100.00;101389.31;4921680;29;20685;-44
2023/05/11 04:20:20;;;;;;;35.33;19.63;;;;;;;11.62;100.00;101400.28;4918267;29;20210;-47
2023/05/11 04:22:45;;;;;;;28.77;18.15;;;;;;;11.67;100.00;101397.44;4911510;29;20215;-46
2023/05/11 04:25:12;;;;;;;28.02;17.77;;;;;;;11.70;100.00;101397.38;4889866;29;20209;-47
2023/05/11 04:27:38;;;;;;;28.80;18.98;;;;;;;11.64;100.00;101398.44;4912622;29;20187;-47
2023/05/11 04:30:05;;;;;;;29.08;18.50;;;;;;;11.67;100.00;101387.56;4916753;29;20232;-46
2023/05/11 04:32:31;;;;;;;29.92;18.90;;;;;;;11.77;100.00;101393.53;4900525;29;20224;-47
2023/05/11 04:34:56;;;;;;;28.10;18.48;;;;;;;11.84;100.00;101399.56;4920348;29;20195;-45
2023/05/11 04:37:24;;;;;;;27.42;18.60;;;;;;;11.69;100.00;101403.66;4920280;29;20192;-46
2023/05/11 04:39:50;;;;;;;32.35;20.38;;;;;;;11.62;100.00;101402.97;4911600;29;20208;-47
2023/05/11 04:42:16;;;;;;;32.30;20.05;;;;;;;11.63;100.00;101410.13;4911017;29;20226;-45
2023/05/11 04:44:45;;;;;;;32.60;20.25;;;;;;;11.72;100.00;101416.97;4920724;29;20180;-46
2023/05/11 04:47:11;;;;;;;36.00;21.42;;;;;;;11.66;100.00;101401.94;4905423;29;20274;-45
2023/05/11 04:49:36;;;;;;;28.17;18.85;;;;;;;11.75;100.00;101409.69;4914402;29;20219;-46
2023/05/11 04:52:02;;;;;;;30.02;19.00;;;;;;;11.76;100.00;101410.56;4919812;29;20235;-46
2023/05/11 04:54:29;;;;;;;25.95;18.25;;;;;;;11.85;100.00;101412.94;4900474;29;20184;-47
2023/05/11 04:56:56;;;;;;;27.55;18.55;;;;;;;11.81;100.00;101411.28;4925434;29;20783;-48
2023/05/11 04:59:21;;;;;;;28.92;18.75;;;;;;;11.87;100.00;101416.47;4912707;29;20258;-46
2023/05/11 05:01:47;;;;;;;27.92;18.13;;;;;;;12.00;100.00;101408.88;4913490;29;20268;-47
2023/05/11 05:04:12;;;;;;;27.25;18.05;;;;;;;12.04;100.00;101407.84;4923314;29;20728;-43
2023/05/11 05:06:38;;;;;;;28.42;18.20;;;;;;;12.05;100.00;101419.47;4915933;29;20184;-46
2023/05/11 05:09:03;;;;;;;26.40;17.88;;;;;;;11.93;100.00;101421.63;4917912;29;20859;-46
2023/05/11 05:11:29;;;;;;;28.65;19.25;;;;;;;11.82;100.00;101414.84;4922038;29;20646;-47
2023/05/11 05:13:55;;;;;;;28.30;19.25;;;;;;;11.69;100.00;101417.06;4910643;29;20565;-46
2023/05/11 05:16:21;;;;;;;26.08;17.92;;;;;;;11.80;100.00;101422.94;4911989;29;20227;-46
2023/05/11 05:18:47;;;;;;;27.92;18.48;;;;;;;11.83;100.00;101422.88;4906606;29;20179;-45
2023/05/11 05:21:13;;;;;;;25.75;17.45;;;;;;;11.86;100.00;101421.88;4902264;29;20267;-46
2023/05/11 05:23:39;;;;;;;27.02;17.95;;;;;;;11.80;100.00;101422.06;4907873;29;20295;-46
2023/05/11 05:26:04;;;;;;;26.75;17.75;;;;;;;11.75;100.00;101424.91;4915619;29;20184;-46
2023/05/11 05:28:34;;;;;;;31.15;18.77;;;;;;;11.87;100.00;101426.28;4897503;29;20202;-46
2023/05/11 05:31:00;;;;;;;29.38;16.13;;;;;;;11.87;100.00;101424.50;4911663;29;20560;-47
2023/05/11 05:33:27;;;;;;;25.17;16.67;;;;;;;11.92;100.00;101429.75;4911871;29;20215;-45
2023/05/11 05:35:52;;;;;;;27.85;17.45;;;;;;;11.68;100.00;101434.13;4921306;29;20188;-46
2023/05/11 05:38:19;;;;;;;27.80;17.38;;;;;;;11.50;100.00;101432.88;4914755;29;20231;-47
2023/05/11 05:40:45;;;;;;;29.38;18.42;;;;;;;11.54;100.00;101438.13;4904958;29;20235;-45
2023/05/11 05:43:11;;;;;;;31.27;19.25;;;;;;;11.49;100.00;101440.06;4923746;29;20254;-47
2023/05/11 05:45:37;;;;;;;32.20;20.92;;;;;;;11.48;100.00;101448.19;4922206;29;20602;-44
2023/05/11 05:48:04;;;;;;;32.42;20.83;;;;;;;11.52;100.00;101447.13;4914845;29;20180;-46
2023/05/11 05:50:32;;;;;;;37.13;22.67;;;;;;;11.47;100.00;101449.97;4911276;29;20211;-46
2023/05/11 05:52:58;;;;;;;42.78;25.15;;;;;;;11.41;100.00;101454.66;4923016;29;20483;-45
2023/05/11 05:55:25;;;;;;;40.47;25.80;;;;;;;11.34;100.00;101453.97;4923649;29;20191;-45
2023/05/11 05:57:52;;;;;;;44.47;25.35;;;;;;;11.31;100.00;101464.81;4915794;29;20574;-43
2023/05/11 06:00:18;;;;;;;41.40;24.48;;;;;;;11.51;100.00;101466.84;4909345;29;20551;-45
2023/05/11 06:02:51;;;;;;;45.78;25.45;;;;;;;11.33;100.00;101462.97;4903839;29;20220;-43
2023/05/11 06:05:22;;;;;;;41.45;25.15;;;;;;;11.32;100.00;101475.47;4909900;29;20211;-46
2023/05/11 06:07:48;;;;;;;42.17;25.55;;;;;;;11.28;100.00;101475.63;4913840;29;20184;-50
2023/05/11 06:10:13;;;;;;;43.08;24.95;;;;;;;11.15;100.00;101475.13;4901498;29;20184;-50
2023/05/11 06:12:39;;;;;;;52.03;26.92;;;;;;;11.07;100.00;101474.47;4916273;29;20297;-51
2023/05/11 06:15:05;;;;;;;48.90;27.45;;;;;;;11.07;100.00;101478.03;4922401;29;20282;-50
2023/05/11 06:17:32;;;;;;;45.60;26.23;;;;;;;11.00;100.00;101481.84;4908533;29;20593;-52
2023/05/11 06:19:57;;;;;;;51.65;26.67;;;;;;;10.95;100.00;101480.19;4905200;29;20216;-49
2023/05/11 06:22:26;;;;;;;58.67;25.17;;;;;;;10.94;100.00;101482.00;4901316;29;20195;-49
2023/05/11 06:24:52;;;;;;;58.80;25.02;;;;;;;10.88;100.00;101491.09;4905360;29;20194;-50
2023/05/11 06:27:18;;;;;;;64.82;24.80;;;;;;;10.86;100.00;101486.72;4913128;29;20175;-52
2023/05/11 06:29:44;;;;;;;58.22;24.77;;;;;;;10.81;100.00;101492.19;4903839;29;20266;-49
2023/05/11 06:32:10;;;;;;;50.88;21.90;;;;;;;10.78;100.00;101494.09;4881766;29;20708;-50
2023/05/11 06:34:38;;;;;;;58.00;21.30;;;;;;;10.83;100.00;101495.72;4913194;29;20195;-49
2023/05/11 06:37:04;;;;;;;55.15;21.75;;;;;;;10.84;100.00;101492.09;4904616;29;20191;-50
2023/05/11 06:39:29;;;;;;;53.70;20.27;;;;;;;10.87;100.00;101500.06;4920799;29;20215;-50
2023/05/11 06:41:55;;;;;;;49.92;21.83;;;;;;;10.82;100.00;101493.06;4940085;23;20235;-51
2023/05/11 06:44:20;;;;;;;37.60;18.10;;;;;;;10.81;100.00;101505.59;4935524;28;20211;-49
2023/05/11 06:46:49;;;;;;;37.28;18.42;;;;;;;10.83;100.00;101510.94;4925245;28;20183;-50
2023/05/11 06:49:15;;;;;;;37.13;23.23;;;;;;;10.76;100.00;101499.50;4931014;29;20178;-48
2023/05/11 06:51:44;;;;;;;41.13;25.75;;;;;;;10.78;100.00;101518.19;4931067;29;20183;-48
2023/05/11 06:54:09;;;;;;;31.45;23.27;;;;;;;10.78;100.00;101513.75;4931068;29;20249;-47
2023/05/11 06:56:36;;;;;;;39.20;23.63;;;;;;;10.82;100.00;101519.88;4925999;29;20269;-47
2023/05/11 06:59:01;;;;;;;37.58;23.13;;;;;;;10.94;100.00;101514.19;4939614;29;20235;-48
2023/05/11 07:01:27;;;;;;;28.80;19.15;;;;;;;10.80;100.00;101519.03;4942398;29;20191;-47
2023/05/11 07:03:55;;;;;;;30.15;19.17;;;;;;;10.85;100.00;101509.97;4927509;29;20245;-46
2023/05/11 07:06:21;;;;;;;33.53;18.67;;;;;;;10.78;100.00;101520.88;4936632;29;20681;-48
2023/05/11 07:08:47;;;;;;;28.30;18.80;;;;;;;10.79;100.00;101525.34;4938461;29;20197;-47
2023/05/11 07:11:14;;;;;;;32.10;18.05;;;;;;;10.82;100.00;101504.69;4928092;29;20266;-48
2023/05/11 07:13:40;;;;;;;28.33;18.75;;;;;;;11.01;100.00;101514.88;4939402;29;20205;-48
2023/05/11 07:16:05;;;;;;;27.88;18.27;;;;;;;10.99;100.00;101514.91;4941146;29;20899;-48
2023/05/11 07:18:31;;;;;;;31.20;19.10;;;;;;;10.89;100.00;101522.34;4926674;29;20175;-47
2023/05/11 07:20:56;;;;;;;28.23;17.90;;;;;;;11.01;100.00;101518.44;4941194;29;20198;-47
2023/05/11 07:23:22;;;;;;;29.05;16.70;;;;;;;10.99;100.00;101524.78;4939869;29;20276;-48
2023/05/11 07:25:48;;;;;;;25.05;17.13;;;;;;;11.16;100.00;101529.66;4940683;29;20561;-48
2023/05/11 07:28:14;;;;;;;28.60;17.38;;;;;;;11.21;100.00;101525.03;4924717;29;20290;-46
2023/05/11 07:30:40;;;;;;;27.40;16.45;;;;;;;11.18;100.00;101527.81;4942892;29;20592;-47
2023/05/11 07:33:05;;;;;;;22.55;15.30;;;;;;;11.20;100.00;101529.50;4943465;29;20218;-48
2023/05/11 07:35:31;;;;;;;26.45;17.48;;;;;;;11.19;100.00;101532.22;4947032;29;20505;-47
2023/05/11 07:37:57;;;;;;;24.63;16.98;;;;;;;11.17;100.00;101528.72;4942684;28;20174;-49
2023/05/11 07:40:22;;;;;;;23.85;16.67;;;;;;;11.10;100.00;101523.53;4940029;29;20662;-46
2023/05/11 07:42:48;;;;;;;23.60;16.65;;;;;;;11.12;100.00;101526.16;4938923;29;20243;-49
2023/05/11 07:45:14;;;;;;;20.52;16.13;;;;;;;11.11;100.00;101538.72;4941001;29;20202;-49
2023/05/11 07:47:40;;;;;;;21.10;15.93;;;;;;;11.02;100.00;101535.41;4940817;29;20191;-48
2023/05/11 07:50:06;;;;;;;22.40;16.45;;;;;;;10.99;100.00;101539.03;4939190;29;20175;-47
2023/05/11 07:52:31;;;;;;;23.55;16.38;;;;;;;11.01;100.00;101537.22;4940316;29;20223;-48
2023/05/11 07:54:57;;;;;;;20.50;15.15;;;;;;;10.99;100.00;101538.19;4936622;29;20179;-47
2023/05/11 07:57:22;;;;;;;20.90;15.38;;;;;;;10.97;100.00;101543.56;4938365;29;20207;-49
2023/05/11 07:59:48;;;;;;;21.85;16.60;;;;;;;11.00;100.00;101540.81;4945697;29;20257;-48
2023/05/11 08:02:14;;;;;;;16.75;13.98;;;;;;;10.99;100.00;101552.47;4940074;29;20278;-48
2023/05/11 08:04:39;;;;;;;19.63;15.00;;;;;;;11.02;100.00;101549.72;4941121;29;20182;-50
2023/05/11 08:07:05;;;;;;;21.48;15.10;;;;;;;11.00;100.00;101561.38;4937966;29;20191;-47
2023/05/11 08:09:31;;;;;;;19.50;15.23;;;;;;;11.04;100.00;101552.31;4942344;29;20684;-46
2023/05/11 08:11:56;;;;;;;18.88;13.25;;;;;;;10.95;100.00;101564.19;4935677;29;20179;-49
2023/05/11 08:14:24;;;;;;;17.95;14.60;;;;;;;10.97;100.00;101562.34;4937872;29;20216;-48
2023/05/11 08:16:50;;;;;;;19.95;14.68;;;;;;;10.93;100.00;101564.25;4939296;29;20178;-48
2023/05/11 08:19:15;;;;;;;19.38;14.65;;;;;;;10.98;100.00;101565.94;4940014;29;20661;-48
2023/05/11 08:21:41;;;;;;;21.05;15.63;;;;;;;10.94;100.00;101557.09;4943127;29;20651;-49
2023/05/11 08:24:07;;;;;;;19.85;14.77;;;;;;;10.93;100.00;101571.38;4940777;29;20205;-49
2023/05/11 08:26:33;;;;;;;17.92;12.75;;;;;;;10.91;100.00;101566.09;4939279;29;20263;-50
2023/05/11 08:28:58;;;;;;;15.65;12.15;;;;;;;10.96;100.00;101567.78;4935790;29;20689;-49
2023/05/11 08:31:23;;;;;;;14.93;11.40;;;;;;;10.82;100.00;101568.13;4941919;29;20182;-49
2023/05/11 08:33:49;;;;;;;15.80;12.57;;;;;;;10.86;100.00;101569.81;4936783;29;20230;-49
2023/05/11 08:36:15;;;;;;;17.17;13.55;;;;;;;10.84;100.00;101566.28;4939159;29;20191;-48
2023/05/11 08:38:40;;;;;;;15.43;13.00;;;;;;;10.85;100.00;101573.44;4941038;29;20645;-51
2023/05/11 08:41:06;;;;;;;18.38;14.07;;;;;;;10.86;100.00;101580.53;4937696;29;20202;-49
2023/05/11 08:43:34;;;;;;;18.67;14.60;;;;;;;10.80;100.00;101578.91;4924968;29;20639;-49
2023/05/11 08:46:03;;;;;;;18.50;13.80;;;;;;;10.77;100.00;101578.09;4939555;29;20211;-48
2023/05/11 08:48:29;;;;;;;17.48;13.73;;;;;;;10.82;100.00;101577.06;4940747;29;20292;-49
2023/05/11 08:50:55;;;;;;;15.38;12.88;;;;;;;10.88;100.00;101578.69;4940789;29;20179;-48
2023/05/11 08:53:21;;;;;;;15.80;12.68;;;;;;;10.86;100.00;101584.09;4938539;29;20211;-48
2023/05/11 08:55:48;;;;;;;16.02;13.05;;;;;;;10.78;100.00;101585.22;4937756;29;20258;-48
2023/05/11 08:58:19;;;;;;;14.05;12.07;;;;;;;10.68;100.00;101600.69;4940707;29;20175;-49
2023/05/11 09:00:48;;;;;;;14.25;11.77;;;;;;;10.66;100.00;101595.34;4930093;29;20298;-48
2023/05/11 09:03:16;;;;;;;12.07;10.88;;;;;;;10.64;100.00;101602.53;4935875;29;20245;-48
2023/05/11 09:05:46;;;;;;;14.32;11.93;;;;;;;10.70;100.00;101598.84;4926076;29;20184;-49
2023/05/11 09:08:14;;;;;;;13.05;11.77;;;;;;;10.65;100.00;101593.59;4936986;28;20199;-51
2023/05/11 09:10:41;;;;;;;12.82;11.52;;;;;;;10.60;100.00;101592.81;4943460;29;20175;-51
2023/05/11 09:13:07;;;;;;;13.05;11.65;;;;;;;10.61;100.00;101593.72;4934919;28;20230;-49
2023/05/11 09:15:32;;;;;;;13.48;11.82;;;;;;;10.62;100.00;101590.09;4941234;29;20233;-49
2023/05/11 09:17:58;;;;;;;12.35;11.10;;;;;;;10.64;100.00;101590.94;4943229;29;20187;-50
2023/05/11 09:20:30;;;;;;;12.10;11.00;;;;;;;10.67;100.00;101594.44;4942432;28;20293;-50
2023/05/11 09:22:57;;;;;;;11.20;10.10;;;;;;;10.71;100.00;101595.22;4936385;29;20769;-50
2023/05/11 09:25:24;;;;;;;10.38;9.38;;;;;;;10.68;100.00;101593.50;4940631;29;20187;-49
2023/05/11 09:27:50;;;;;;;10.88;9.77;;;;;;;10.64;100.00;101589.16;4940442;29;20245;-52
2023/05/11 09:30:25;;;;;;;10.75;9.65;;;;;;;10.62;100.00;101595.47;4942345;29;20271;-51
2023/05/11 09:32:51;;;;;;;10.07;9.07;;;;;;;10.58;100.00;101581.25;4945731;29;20490;-51
2023/05/11 09:35:19;;;;;;;11.65;9.50;;;;;;;10.66;100.00;101586.44;4945893;29;20371;-50
2023/05/11 09:37:55;;;;;;;9.40;8.40;;;;;;;10.71;100.00;101588.09;4943146;29;20179;-51
2023/05/11 09:40:21;;;;;;;10.65;8.98;;;;;;;10.67;100.00;101588.19;4941925;29;20245;-51
2023/05/11 09:42:46;;;;;;;10.40;9.15;;;;;;;10.64;100.00;101593.63;4940154;29;20678;-50
2023/05/11 09:45:12;;;;;;;9.23;8.35;;;;;;;10.81;100.00;101591.38;4943389;29;20198;-50
2023/05/11 09:47:41;;;;;;;10.98;9.88;;;;;;;10.65;100.00;101600.78;4940586;29;20282;-50
2023/05/11 09:50:16;;;;;;;12.30;10.32;;;;;;;10.72;100.00;101595.19;4945288;29;20612;-51
2023/05/11 09:52:51;;;;;;;10.30;9.30;;;;;;;10.80;100.00;101596.78;4941845;29;20237;-49
2023/05/11 09:55:17;;;;;;;11.05;8.82;;;;;;;10.78;100.00;101585.22;4944984;29;20186;-50
2023/05/11 09:57:52;;;;;;;9.18;8.02;;;;;;;10.82;100.00;101600.28;4943303;29;20190;-50
2023/05/11 10:00:18;;;;;;;9.23;8.25;;;;;;;10.85;100.00;101593.06;4943288;29;20207;-50
2023/05/11 10:02:43;;;;;;;9.15;8.18;;;;;;;10.96;100.00;101600.81;4924235;29;20215;-50
2023/05/11 10:05:12;;;;;;;9.60;8.02;;;;;;;11.07;100.00;101604.06;4943226;29;20194;-49
2023/05/11 10:07:38;;;;;;;9.27;8.38;;;;;;;11.06;100.00;101596.06;4942510;29;20650;-50
2023/05/11 10:10:08;;;;;;;10.77;9.07;;;;;;;11.03;100.00;101597.03;4941613;29;20184;-51
2023/05/11 10:12:37;;;;;;;10.10;8.13;;;;;;;10.76;100.00;101601.38;4941816;29;20226;-49
2023/05/11 10:15:03;;;;;;;9.85;8.48;;;;;;;10.81;100.00;101591.38;4939358;29;20206;-50
2023/05/11 10:17:29;;;;;;;10.25;8.63;;;;;;;10.91;100.00;101594.69;4942169;29;20713;-51
2023/05/11 10:19:56;;;;;;;9.27;8.38;;;;;;;10.86;100.00;101593.94;4944286;29;20673;-50
2023/05/11 10:22:23;;;;;;;10.05;7.30;;;;;;;10.78;100.00;101599.53;4944465;29;20226;-50
2023/05/11 10:24:49;;;;;;;10.38;7.57;;;;;;;10.82;100.00;101586.91;4944612;28;20207;-50
2023/05/11 10:27:15;;;;;;;11.43;7.47;;;;;;;10.79;100.00;101581.63;4940679;29;20302;-50
2023/05/11 10:29:42;;;;;;;9.25;8.35;;;;;;;10.73;100.00;101574.63;4940734;29;20184;-50
2023/05/11 10:32:09;;;;;;;10.25;9.25;;;;;;;10.72;100.00;101586.28;4943576;29;20302;-51
2023/05/11 10:34:35;;;;;;;11.45;8.70;;;;;;;10.76;100.00;101589.72;4940323;29;20603;-50
2023/05/11 10:37:01;;;;;;;11.40;8.82;;;;;;;10.72;100.00;101583.59;4942510;29;20191;-50
2023/05/11 10:39:30;;;;;;;12.35;9.45;;;;;;;10.65;100.00;101582.88;4932443;29;20278;-50
2023/05/11 10:42:00;;;;;;;12.15;10.45;;;;;;;10.67;100.00;101575.69;4941305;29;20292;-50
2023/05/11 10:44:34;;;;;;;13.52;10.02;;;;;;;10.73;100.00;101577.31;4940642;29;20271;-49
2023/05/11 10:47:13;;;;;;;13.20;11.15;;;;;;;10.77;100.00;101591.50;4936370;29;20195;-50
2023/05/11 10:49:59;;;;;;;14.25;10.50;;;;;;;10.85;100.00;101586.84;4940601;29;20187;-50
2023/05/11 10:52:48;;;;;;;12.55;11.13;;;;;;;10.92;100.00;101583.06;4942143;29;20231;-50
2023/05/11 10:55:48;;;;;;;14.50;10.98;;;;;;;11.00;100.00;101578.38;4938241;29;20206;-49
2023/05/11 10:58:46;;;;;;;13.43;10.45;;;;;;;11.11;100.00;101589.66;4936768;29;20297;-50
2023/05/11 11:01:21;;;;;;;14.35;9.82;;;;;;;11.31;100.00;101589.09;4931633;29;20578;-52
2023/05/11 11:04:04;;;;;;;12.18;9.43;;;;;;;11.28;100.00;101590.97;4921903;29;20249;-50
2023/05/11 11:06:31;;;;;;;9.93;8.25;;;;;;;11.30;100.00;101565.88;4942075;29;20198;-50
2023/05/11 11:09:02;;;;;;;10.15;8.80;;;;;;;11.44;100.00;101576.19;4941068;29;20705;-50
2023/05/11 11:11:44;;;;;;;10.05;8.13;;;;;;;11.43;100.00;101571.72;4942247;29;20666;-50